Time;durP1;ratioP1;P1;durP2;ratioP2;P2;SDS_P1;SDS_P2;PMS_P1;PMS_P2;Temp;Humidity;BMP_temperature;BMP_pressure;BME280_temperature;BME280_humidity;BME280_pressure;Samples;Min_cycle;Max_cycle;Signal;HPM_P1;HPM_P2
2024/03/02 00:00:09;;;;;;;18.93;13.80;;;5.50;99.90;;;;;;6212978;23;20024;-74
2024/03/02 00:02:39;;;;;;;19.50;13.97;;;5.50;99.90;;;;;;6212434;23;20294;-74
2024/03/02 00:05:06;;;;;;;19.70;14.67;;;5.50;99.90;;;;;;6213362;23;20009;-75
2024/03/02 00:07:31;;;;;;;19.07;13.93;;;5.50;99.90;;;;;;6213046;23;20062;-76
2024/03/02 00:09:57;;;;;;;20.23;14.70;;;5.50;99.90;;;;;;6214373;23;20095;-75
2024/03/02 00:12:23;;;;;;;19.73;14.43;;;5.50;99.90;;;;;;6213362;23;20068;-75
2024/03/02 00:14:48;;;;;;;18.40;14.30;;;5.50;99.90;;;;;;6212751;23;20004;-74
2024/03/02 00:17:21;;;;;;;18.57;14.13;;;5.50;99.90;;;;;;6212934;23;20019;-74
2024/03/02 00:19:47;;;;;;;19.00;14.20;;;5.50;99.90;;;;;;6213216;23;20000;-74
2024/03/02 00:22:12;;;;;;;20.33;13.30;;;5.50;99.90;;;;;;6212363;23;20039;-74
2024/03/02 00:24:39;;;;;;;19.07;14.07;;;5.50;99.90;;;;;;6212765;23;20373;-75
2024/03/02 00:27:07;;;;;;;20.73;15.70;;;5.50;99.90;;;;;;6213270;23;20003;-75
2024/03/02 00:29:34;;;;;;;20.13;15.03;;;5.50;99.90;;;;;;6212576;23;20013;-75
2024/03/02 00:32:01;;;;;;;22.27;15.60;;;5.50;99.90;;;;;;6212585;23;20666;-75
2024/03/02 00:34:26;;;;;;;20.20;16.23;;;5.50;99.90;;;;;;6211726;23;20039;-75
2024/03/02 00:36:52;;;;;;;21.90;16.10;;;5.50;99.90;;;;;;6212942;23;19997;-75
2024/03/02 00:39:18;;;;;;;22.47;15.47;;;5.50;99.90;;;;;;6213412;23;20012;-75
2024/03/02 00:41:44;;;;;;;19.70;15.37;;;5.50;99.90;;;;;;6212422;23;19997;-74
2024/03/02 00:44:12;;;;;;;18.60;14.70;;;5.50;99.90;;;;;;6212252;23;20335;-75
2024/03/02 00:46:39;;;;;;;22.73;16.67;;;5.50;99.90;;;;;;6212729;23;20083;-75
2024/03/02 00:49:26;;;;;;;18.90;15.17;;;5.50;99.90;;;;;;6212898;23;20016;-74
2024/03/02 00:51:53;;;;;;;17.37;14.27;;;5.40;99.90;;;;;;6212564;23;20027;-75
2024/03/02 00:54:24;;;;;;;20.00;15.07;;;5.40;99.90;;;;;;6212343;23;20007;-74
2024/03/02 00:56:50;;;;;;;19.03;14.30;;;5.40;99.90;;;;;;6212200;23;20007;-74
2024/03/02 00:59:16;;;;;;;20.93;15.17;;;5.40;99.90;;;;;;6212433;23;20001;-75
2024/03/02 01:01:42;;;;;;;19.47;15.20;;;5.40;99.90;;;;;;6212627;23;20008;-74
2024/03/02 01:04:08;;;;;;;21.33;15.20;;;5.40;99.90;;;;;;6212364;23;20011;-74
2024/03/02 01:06:35;;;;;;;18.87;14.80;;;5.30;99.90;;;;;;6212894;23;20009;-75
2024/03/02 01:09:00;;;;;;;19.40;14.20;;;5.30;99.90;;;;;;6212042;23;20518;-75
2024/03/02 01:11:26;;;;;;;20.30;16.47;;;5.30;99.90;;;;;;6212677;23;20001;-75
2024/03/02 01:13:52;;;;;;;19.97;15.53;;;5.30;99.90;;;;;;6212353;23;20017;-75
2024/03/02 01:16:17;;;;;;;20.33;15.10;;;5.30;99.90;;;;;;6212164;23;20009;-75
2024/03/02 01:18:43;;;;;;;22.10;16.43;;;5.30;99.90;;;;;;6212648;23;20001;-74
2024/03/02 01:21:09;;;;;;;19.77;15.00;;;5.30;99.90;;;;;;6212751;23;20007;-74
2024/03/02 01:23:34;;;;;;;18.83;14.80;;;5.30;99.90;;;;;;6212575;23;20309;-75
2024/03/02 01:26:00;;;;;;;19.37;15.53;;;5.30;99.90;;;;;;6212583;23;20046;-75
2024/03/02 01:28:25;;;;;;;19.87;15.20;;;5.30;99.90;;;;;;6212283;23;20035;-75
2024/03/02 01:30:51;;;;;;;19.20;15.23;;;5.30;99.90;;;;;;6212398;23;19996;-74
2024/03/02 01:33:17;;;;;;;20.07;15.43;;;5.30;99.90;;;;;;6212758;23;20016;-75
2024/03/02 01:35:43;;;;;;;20.77;15.67;;;5.30;99.90;;;;;;6211868;23;20007;-75
2024/03/02 01:38:09;;;;;;;20.50;14.87;;;5.30;99.90;;;;;;6213235;23;20036;-74
2024/03/02 01:40:35;;;;;;;19.93;14.60;;;5.30;99.90;;;;;;6214716;23;20059;-75
2024/03/02 01:43:02;;;;;;;19.90;14.93;;;5.30;99.90;;;;;;6213943;23;20087;-74
2024/03/02 01:45:28;;;;;;;21.97;15.87;;;5.30;99.90;;;;;;6212125;23;20092;-75
2024/03/02 01:47:54;;;;;;;20.10;15.63;;;5.30;99.90;;;;;;6213851;23;20316;-74
2024/03/02 01:50:30;;;;;;;21.70;16.70;;;5.30;99.90;;;;;;6214021;23;20056;-74
2024/03/02 01:52:56;;;;;;;20.33;15.73;;;5.30;99.90;;;;;;6213708;23;20435;-75
2024/03/02 01:55:22;;;;;;;21.90;15.60;;;5.20;99.90;;;;;;6213681;23;20061;-74
2024/03/02 01:57:48;;;;;;;20.43;15.07;;;5.20;99.90;;;;;;6214782;23;20001;-74
2024/03/02 02:00:15;;;;;;;23.07;16.20;;;5.20;99.90;;;;;;6214229;23;20065;-75
2024/03/02 02:02:41;;;;;;;18.50;15.50;;;5.20;99.90;;;;;;6214084;23;20055;-74
2024/03/02 02:05:07;;;;;;;18.73;15.37;;;5.20;99.90;;;;;;6213733;23;20000;-74
2024/03/02 02:07:33;;;;;;;27.43;18.63;;;5.20;99.90;;;;;;6213864;23;20005;-75
2024/03/02 02:09:58;;;;;;;48.87;29.77;;;5.20;99.90;;;;;;6214178;23;20009;-75
2024/03/02 02:12:24;;;;;;;27.70;18.57;;;5.20;99.90;;;;;;6213854;23;20028;-74
2024/03/02 02:14:50;;;;;;;21.20;16.47;;;5.20;99.90;;;;;;6213345;23;20000;-74
2024/03/02 02:17:16;;;;;;;22.17;16.13;;;5.20;99.90;;;;;;6214236;23;20402;-74
2024/03/02 02:19:42;;;;;;;24.63;16.23;;;5.30;99.90;;;;;;6213647;23;20051;-74
2024/03/02 02:22:08;;;;;;;23.00;15.57;;;5.20;99.90;;;;;;6214121;23;20367;-75
2024/03/02 02:24:34;;;;;;;21.53;15.47;;;5.20;99.90;;;;;;6213133;23;20005;-74
2024/03/02 02:26:59;;;;;;;17.90;14.53;;;5.20;99.90;;;;;;6213940;23;19997;-74
2024/03/02 02:29:25;;;;;;;19.43;14.90;;;5.20;99.90;;;;;;6214732;23;20339;-74
2024/03/02 02:31:50;;;;;;;18.00;14.53;;;5.20;99.90;;;;;;6214581;23;20001;-74
2024/03/02 02:34:16;;;;;;;19.70;15.30;;;5.10;99.90;;;;;;6213009;23;20000;-75
2024/03/02 02:36:42;;;;;;;19.70;15.10;;;5.10;99.90;;;;;;6213963;23;20001;-74
2024/03/02 02:39:15;;;;;;;19.93;15.97;;;5.10;99.90;;;;;;6213757;23;20584;-74
2024/03/02 02:41:40;;;;;;;20.60;15.60;;;5.00;99.90;;;;;;6213908;23;20012;-75
2024/03/02 02:44:06;;;;;;;20.27;15.57;;;5.10;99.90;;;;;;6213956;23;20008;-74
2024/03/02 02:46:31;;;;;;;20.90;16.03;;;5.00;99.90;;;;;;6213612;23;20007;-74
2024/03/02 02:48:57;;;;;;;19.87;15.03;;;5.00;99.90;;;;;;6212713;23;20024;-74
2024/03/02 02:51:23;;;;;;;20.00;15.80;;;5.00;99.90;;;;;;6213927;23;20000;-74
2024/03/02 02:53:49;;;;;;;20.13;16.17;;;5.00;99.90;;;;;;6213098;23;20007;-74
2024/03/02 02:56:14;;;;;;;20.67;15.07;;;5.10;99.90;;;;;;6213912;23;19996;-75
2024/03/02 02:58:41;;;;;;;19.57;15.97;;;5.10;99.90;;;;;;6213609;23;20011;-75
2024/03/02 03:01:07;;;;;;;21.60;16.67;;;5.10;99.90;;;;;;6213794;23;20025;-75
2024/03/02 03:03:33;;;;;;;22.73;17.23;;;5.10;99.90;;;;;;6213279;23;20000;-75
2024/03/02 03:05:58;;;;;;;22.70;17.27;;;5.10;99.90;;;;;;6212615;23;20016;-75
2024/03/02 03:08:24;;;;;;;20.80;16.33;;;5.10;99.90;;;;;;6213250;23;20008;-74
2024/03/02 03:10:50;;;;;;;21.03;16.93;;;5.10;99.90;;;;;;6213742;23;20024;-74
2024/03/02 03:13:15;;;;;;;24.30;18.63;;;5.10;99.90;;;;;;6213921;23;20001;-75
2024/03/02 03:15:41;;;;;;;22.17;17.67;;;5.10;99.90;;;;;;6212575;23;20000;-74
2024/03/02 03:18:10;;;;;;;22.87;18.63;;;5.10;99.90;;;;;;6213013;23;20338;-74
2024/03/02 03:20:36;;;;;;;25.10;19.03;;;5.10;99.90;;;;;;6213012;23;20003;-74
2024/03/02 03:23:01;;;;;;;26.50;19.63;;;5.10;99.90;;;;;;6212997;23;20001;-74
2024/03/02 03:25:27;;;;;;;26.27;20.00;;;5.10;99.90;;;;;;6212757;23;20032;-74
2024/03/02 03:27:52;;;;;;;26.13;19.63;;;5.10;99.90;;;;;;6213008;23;19997;-75
2024/03/02 03:30:18;;;;;;;25.20;18.97;;;5.10;99.90;;;;;;6213475;23;20012;-75
2024/03/02 03:32:43;;;;;;;23.80;19.00;;;5.20;99.90;;;;;;6213213;23;20436;-74
2024/03/02 03:35:09;;;;;;;23.47;18.47;;;5.20;99.90;;;;;;6212611;23;20011;-74
2024/03/02 03:37:35;;;;;;;26.10;18.77;;;5.20;99.90;;;;;;6212939;23;20146;-74
2024/03/02 03:40:09;;;;;;;24.43;18.70;;;5.20;99.90;;;;;;6212605;23;20007;-74
2024/03/02 03:42:36;;;;;;;25.60;18.80;;;5.20;99.90;;;;;;6212802;23;20032;-74
2024/03/02 03:45:02;;;;;;;24.43;18.67;;;5.20;99.90;;;;;;6212979;23;20413;-75
2024/03/02 03:47:27;;;;;;;26.80;19.63;;;5.20;99.90;;;;;;6214283;23;20072;-74
2024/03/02 03:49:53;;;;;;;27.03;19.77;;;5.20;99.90;;;;;;6214296;23;20012;-74
2024/03/02 03:52:18;;;;;;;23.90;18.57;;;5.30;99.90;;;;;;6214173;23;20012;-75
2024/03/02 03:54:44;;;;;;;26.87;19.07;;;5.30;99.90;;;;;;6213274;23;20031;-75
2024/03/02 03:57:10;;;;;;;25.07;18.90;;;5.20;99.90;;;;;;6213458;23;19997;-75
2024/03/02 03:59:37;;;;;;;24.73;19.00;;;5.20;99.90;;;;;;6213020;23;20104;-74
2024/03/02 04:02:03;;;;;;;26.53;20.20;;;5.30;99.90;;;;;;6212873;23;20004;-75
2024/03/02 04:04:28;;;;;;;29.17;19.33;;;5.30;99.90;;;;;;6211993;23;20032;-75
2024/03/02 04:06:54;;;;;;;26.67;19.10;;;5.20;99.90;;;;;;6213547;23;20007;-75
2024/03/02 04:09:20;;;;;;;28.67;18.60;;;5.30;99.90;;;;;;6212178;23;20015;-74
2024/03/02 04:11:45;;;;;;;27.83;19.77;;;5.30;99.90;;;;;;6212371;23;20424;-74
2024/03/02 04:14:12;;;;;;;26.53;19.53;;;5.20;99.90;;;;;;6211655;23;20012;-74
2024/03/02 04:16:38;;;;;;;24.73;19.40;;;5.20;99.90;;;;;;6213195;23;20019;-74
2024/03/02 04:19:03;;;;;;;23.80;18.33;;;5.20;99.90;;;;;;6212817;23;20008;-75
2024/03/02 04:21:29;;;;;;;29.57;19.67;;;5.20;99.90;;;;;;6212797;23;20000;-74
2024/03/02 04:23:58;;;;;;;29.17;19.77;;;5.20;99.90;;;;;;6212457;23;20004;-75
2024/03/02 04:26:25;;;;;;;27.30;19.03;;;5.20;99.90;;;;;;6212634;23;20015;-75
2024/03/02 04:28:51;;;;;;;25.17;18.70;;;5.20;99.90;;;;;;6212152;23;20011;-74
2024/03/02 04:31:16;;;;;;;23.70;17.60;;;5.20;99.90;;;;;;6212347;23;20403;-74
2024/03/02 04:33:42;;;;;;;25.13;18.50;;;5.20;99.90;;;;;;6212633;23;20020;-74
2024/03/02 04:36:10;;;;;;;25.47;18.00;;;5.20;99.90;;;;;;6212653;23;20074;-74
2024/03/02 04:38:36;;;;;;;24.97;19.70;;;5.20;99.90;;;;;;6212090;23;20068;-74
2024/03/02 04:41:03;;;;;;;26.83;18.63;;;5.20;99.90;;;;;;6211766;23;20432;-75
2024/03/02 04:43:28;;;;;;;24.90;19.20;;;5.20;99.90;;;;;;6212551;23;20079;-75
2024/03/02 04:45:54;;;;;;;28.60;18.90;;;5.20;99.90;;;;;;6212073;23;20031;-75
2024/03/02 04:48:19;;;;;;;27.30;19.07;;;5.20;99.90;;;;;;6213123;23;20079;-75
2024/03/02 04:50:45;;;;;;;29.43;19.77;;;5.20;99.90;;;;;;6213004;23;20489;-75
2024/03/02 04:53:11;;;;;;;23.73;19.27;;;5.20;99.90;;;;;;6213319;23;20474;-74
2024/03/02 04:58:06;;;;;;;25.10;18.70;;;5.20;99.90;;;;;;6212096;23;20012;-75
2024/03/02 05:00:32;;;;;;;25.87;18.43;;;5.20;99.90;;;;;;6212683;23;20005;-74
2024/03/02 05:02:58;;;;;;;25.93;18.40;;;5.20;99.90;;;;;;6213009;23;20011;-74
2024/03/02 05:05:23;;;;;;;25.50;19.77;;;5.20;99.90;;;;;;6212508;23;20054;-75
2024/03/02 05:07:49;;;;;;;24.77;17.53;;;5.20;99.90;;;;;;6211907;23;20499;-74
2024/03/02 05:10:14;;;;;;;23.57;16.60;;;5.10;99.90;;;;;;6212225;23;20035;-75
2024/03/02 05:12:56;;;;;;;25.60;18.70;;;5.10;99.90;;;;;;6213175;23;20135;-74
2024/03/02 05:15:22;;;;;;;25.80;19.07;;;5.10;99.90;;;;;;6213249;23;20020;-74
2024/03/02 05:17:47;;;;;;;25.50;18.23;;;5.10;99.90;;;;;;6213453;23;20071;-75
2024/03/02 05:20:13;;;;;;;24.47;18.87;;;5.10;99.90;;;;;;6215103;23;20001;-74
2024/03/02 05:22:39;;;;;;;26.37;19.47;;;5.10;99.90;;;;;;6213368;23;20019;-75
2024/03/02 05:25:05;;;;;;;26.37;19.20;;;5.10;99.90;;;;;;6214364;23;20008;-75
2024/03/02 05:27:34;;;;;;;26.80;20.07;;;5.10;99.90;;;;;;6213744;23;20023;-74
2024/03/02 05:30:00;;;;;;;27.40;18.87;;;5.10;99.90;;;;;;6213436;23;20096;-74
2024/03/02 05:32:25;;;;;;;25.27;18.77;;;5.10;99.90;;;;;;6211993;23;20099;-74
2024/03/02 05:34:51;;;;;;;27.03;20.13;;;5.10;99.90;;;;;;6213522;23;20008;-75
2024/03/02 05:37:17;;;;;;;24.73;18.87;;;5.10;99.90;;;;;;6213755;23;20004;-74
2024/03/02 05:39:43;;;;;;;24.60;18.10;;;5.10;99.90;;;;;;6213473;23;20009;-74
2024/03/02 05:42:09;;;;;;;24.63;18.57;;;5.10;99.90;;;;;;6213564;23;20096;-75
2024/03/02 05:44:38;;;;;;;25.40;19.00;;;5.10;99.90;;;;;;6212512;23;20055;-74
2024/03/02 05:47:04;;;;;;;23.67;18.23;;;5.10;99.90;;;;;;6186231;23;19996;-74
2024/03/02 05:49:29;;;;;;;26.27;19.50;;;5.10;99.90;;;;;;6213939;23;20016;-74
2024/03/02 05:51:55;;;;;;;26.43;19.00;;;5.10;99.90;;;;;;6213582;23;20007;-75
2024/03/02 05:54:20;;;;;;;27.57;19.10;;;5.10;99.90;;;;;;6211957;23;19997;-74
2024/03/02 05:56:46;;;;;;;26.27;19.13;;;5.10;99.90;;;;;;6213179;23;20001;-74
2024/03/02 05:59:16;;;;;;;26.10;19.13;;;5.10;99.90;;;;;;6213475;23;20028;-74
2024/03/02 06:01:51;;;;;;;24.93;18.67;;;5.10;99.90;;;;;;6212931;23;20000;-75
2024/03/02 06:04:17;;;;;;;23.97;18.33;;;5.10;99.90;;;;;;6213317;23;20042;-74
2024/03/02 06:06:43;;;;;;;25.17;19.23;;;5.10;99.90;;;;;;6214009;23;20019;-74
2024/03/02 06:09:12;;;;;;;25.57;20.07;;;5.10;99.90;;;;;;6213253;23;20383;-75
2024/03/02 06:11:38;;;;;;;28.23;20.17;;;5.10;99.90;;;;;;6212623;23;20011;-75
2024/03/02 06:14:04;;;;;;;27.40;19.63;;;5.10;99.90;;;;;;6212627;23;20008;-74
2024/03/02 06:16:30;;;;;;;25.83;19.57;;;5.10;99.90;;;;;;6213127;23;20108;-75
2024/03/02 06:18:57;;;;;;;27.80;20.60;;;5.10;99.90;;;;;;6212660;23;20040;-75
2024/03/02 06:21:23;;;;;;;27.40;19.83;;;5.10;99.90;;;;;;6212617;23;20000;-75
2024/03/02 06:23:49;;;;;;;29.43;19.77;;;5.10;99.90;;;;;;6212519;23;20048;-74
2024/03/02 06:26:14;;;;;;;31.33;21.63;;;5.10;99.90;;;;;;6213121;23;20000;-75
2024/03/02 06:28:40;;;;;;;30.93;21.40;;;5.10;99.90;;;;;;6212980;23;20043;-75
2024/03/02 06:31:05;;;;;;;30.97;22.20;;;5.10;99.90;;;;;;6212411;23;19997;-74
2024/03/02 06:33:31;;;;;;;30.83;21.77;;;5.10;99.90;;;;;;6212568;23;20423;-74
2024/03/02 06:35:56;;;;;;;31.73;21.67;;;5.10;99.90;;;;;;6211825;23;20475;-75
2024/03/02 06:38:22;;;;;;;30.77;20.97;;;5.00;99.90;;;;;;6212596;23;20023;-75
2024/03/02 06:40:47;;;;;;;29.83;19.87;;;5.00;99.90;;;;;;6212292;23;20005;-77
2024/03/02 06:43:13;;;;;;;28.00;20.20;;;5.00;99.90;;;;;;6213264;23;20059;-74
2024/03/02 06:45:38;;;;;;;28.10;20.00;;;5.00;99.90;;;;;;6212550;23;20000;-75
2024/03/02 06:48:24;;;;;;;28.40;21.77;;;5.00;99.90;;;;;;6216837;23;20084;-76
2024/03/02 06:51:26;;;;;;;41.42;23.60;;;5.00;99.90;;;;;;6218317;23;20004;-75
2024/03/02 06:54:12;;;;;;;30.87;20.83;;;5.00;99.90;;;;;;6215737;23;20005;-73
2024/03/02 06:56:39;;;;;;;29.77;19.93;;;4.90;99.90;;;;;;6213631;23;20062;-75
2024/03/02 06:59:04;;;;;;;29.70;20.57;;;4.90;99.90;;;;;;6216161;23;20004;-72
2024/03/02 07:01:30;;;;;;;26.83;19.77;;;4.90;99.90;;;;;;6212689;23;20031;-73
2024/03/02 07:03:55;;;;;;;26.57;19.67;;;4.90;99.90;;;;;;6212566;23;20008;-74
2024/03/02 07:06:21;;;;;;;30.17;22.20;;;4.90;99.90;;;;;;6211853;23;20094;-72
2024/03/02 07:08:46;;;;;;;26.30;19.27;;;4.90;99.90;;;;;;6212678;23;20164;-73
2024/03/02 07:11:12;;;;;;;27.23;20.03;;;4.90;99.90;;;;;;6212826;23;20005;-72
2024/03/02 07:13:37;;;;;;;28.50;20.63;;;4.80;99.90;;;;;;6213417;23;20031;-73
2024/03/02 07:18:30;;;;;;;26.27;19.20;;;4.80;99.90;;;;;;6213268;23;20005;-79
2024/03/02 07:20:58;;;;;;;28.97;21.23;;;4.80;99.90;;;;;;6212004;23;20027;-75
2024/03/02 07:23:27;;;;;;;30.63;22.13;;;4.80;99.90;;;;;;6212633;23;20016;-73
2024/03/02 07:25:54;;;;;;;29.83;21.30;;;4.90;99.90;;;;;;6212736;23;20059;-73
2024/03/02 07:28:20;;;;;;;31.90;21.53;;;4.90;99.90;;;;;;6213921;23;20013;-73
2024/03/02 07:30:46;;;;;;;29.10;21.77;;;5.00;99.90;;;;;;6213059;23;20030;-76
2024/03/02 07:33:11;;;;;;;29.10;20.27;;;5.00;99.90;;;;;;6213450;23;20478;-75
2024/03/02 07:35:37;;;;;;;30.97;22.77;;;5.10;99.90;;;;;;6212045;23;20503;-75
2024/03/02 07:38:03;;;;;;;37.07;24.77;;;5.20;99.90;;;;;;6213200;23;20000;-74
2024/03/02 07:40:29;;;;;;;34.10;23.13;;;5.30;99.90;;;;;;6212271;23;20001;-74
2024/03/02 07:42:55;;;;;;;30.30;21.83;;;5.40;99.90;;;;;;6213342;23;20031;-74
2024/03/02 07:45:20;;;;;;;31.53;22.23;;;5.60;99.90;;;;;;6212572;23;20011;-74
2024/03/02 07:47:46;;;;;;;30.13;22.40;;;5.70;99.90;;;;;;6213381;23;20007;-74
2024/03/02 07:50:12;;;;;;;32.23;22.70;;;5.80;99.90;;;;;;6213676;23;20019;-75
2024/03/02 07:52:37;;;;;;;32.83;23.03;;;6.00;99.90;;;;;;6213003;23;20008;-75
2024/03/02 07:55:03;;;;;;;33.10;24.97;;;6.00;99.90;;;;;;6212543;23;20011;-75
2024/03/02 07:57:29;;;;;;;34.13;23.03;;;6.10;99.90;;;;;;6213405;23;19997;-75
2024/03/02 07:59:55;;;;;;;30.67;22.63;;;6.20;99.90;;;;;;6211313;23;20076;-75
2024/03/02 08:02:20;;;;;;;30.83;22.97;;;6.20;99.90;;;;;;6211670;23;20032;-75
2024/03/02 08:04:46;;;;;;;28.60;21.33;;;6.40;99.90;;;;;;6212757;23;20001;-79
2024/03/02 08:07:12;;;;;;;27.77;20.90;;;6.50;99.90;;;;;;6213160;23;20452;-76
2024/03/02 08:09:37;;;;;;;24.57;18.83;;;6.60;99.90;;;;;;6212129;23;20020;-75
2024/03/02 08:12:03;;;;;;;24.83;17.80;;;6.60;99.90;;;;;;6212222;23;20004;-76
2024/03/02 08:14:28;;;;;;;24.33;18.40;;;6.70;99.90;;;;;;6212816;23;20063;-76
2024/03/02 08:16:54;;;;;;;23.93;16.97;;;6.80;99.90;;;;;;6212011;23;20004;-75
2024/03/02 08:19:20;;;;;;;22.07;16.57;;;6.90;99.90;;;;;;6213339;23;20327;-76
2024/03/02 08:21:45;;;;;;;21.90;16.47;;;6.90;99.90;;;;;;6212864;23;20003;-75
2024/03/02 08:24:11;;;;;;;23.40;16.77;;;6.90;99.90;;;;;;6212674;23;20084;-75
2024/03/02 08:26:36;;;;;;;22.60;16.23;;;7.00;99.90;;;;;;6212623;23;20032;-74
2024/03/02 08:29:03;;;;;;;22.40;16.50;;;7.00;99.90;;;;;;6213640;23;20008;-75
2024/03/02 08:31:29;;;;;;;23.10;16.97;;;7.00;99.90;;;;;;6212631;23;20000;-75
2024/03/02 08:33:55;;;;;;;25.80;17.13;;;7.10;99.90;;;;;;6211161;23;20442;-75
2024/03/02 08:36:20;;;;;;;28.53;17.63;;;7.10;99.90;;;;;;6211430;23;20001;-74
2024/03/02 08:38:48;;;;;;;23.73;16.57;;;7.20;99.90;;;;;;6211861;23;20001;-75
2024/03/02 08:41:13;;;;;;;22.07;15.97;;;7.30;99.90;;;;;;6211891;23;20051;-75
2024/03/02 08:43:41;;;;;;;20.23;15.33;;;7.40;99.90;;;;;;6213104;23;20067;-75
2024/03/02 08:46:07;;;;;;;20.00;15.50;;;7.40;99.90;;;;;;6210618;23;20004;-75
2024/03/02 08:48:32;;;;;;;21.33;15.80;;;7.50;99.90;;;;;;6214402;23;20455;-74
2024/03/02 08:50:58;;;;;;;22.80;16.97;;;7.50;99.90;;;;;;6214910;23;20001;-74
2024/03/02 08:53:24;;;;;;;22.40;16.63;;;7.60;99.90;;;;;;6215134;23;20004;-75
2024/03/02 08:55:49;;;;;;;22.07;16.87;;;7.60;99.90;;;;;;6214407;23;20011;-75
2024/03/02 08:58:15;;;;;;;21.83;16.73;;;7.70;99.90;;;;;;6215421;23;20001;-75
2024/03/02 09:00:41;;;;;;;22.90;17.00;;;7.90;99.90;;;;;;6214941;23;20383;-75
2024/03/02 09:03:07;;;;;;;22.20;17.33;;;8.10;99.90;;;;;;6214382;23;20145;-74
2024/03/02 09:05:33;;;;;;;22.43;17.57;;;8.20;99.90;;;;;;6213870;23;20020;-75
2024/03/02 09:07:58;;;;;;;26.57;18.03;;;8.40;99.90;;;;;;6213585;23;20028;-75
2024/03/02 09:10:24;;;;;;;23.03;17.70;;;8.50;99.90;;;;;;6212929;23;20005;-75
2024/03/02 09:12:49;;;;;;;21.63;17.10;;;8.50;99.90;;;;;;6214075;23;20005;-74
2024/03/02 09:15:15;;;;;;;21.87;15.67;;;8.60;99.90;;;;;;6213527;23;20447;-74
2024/03/02 09:17:41;;;;;;;22.13;16.07;;;8.70;99.90;;;;;;6214013;23;20008;-75
2024/03/02 09:20:06;;;;;;;20.47;15.97;;;8.70;99.90;;;;;;6213555;23;20064;-74
2024/03/02 09:22:32;;;;;;;25.33;17.63;;;8.70;99.90;;;;;;6213151;23;20044;-75
2024/03/02 09:24:58;;;;;;;21.63;16.23;;;8.70;99.90;;;;;;6213255;23;20004;-75
2024/03/02 09:27:24;;;;;;;23.73;17.10;;;8.70;99.90;;;;;;6214095;23;20024;-75
2024/03/02 09:29:49;;;;;;;20.70;15.03;;;8.80;99.90;;;;;;6213310;23;20423;-75
2024/03/02 09:32:15;;;;;;;24.87;16.37;;;8.90;99.90;;;;;;6213000;23;20332;-75
2024/03/02 09:34:41;;;;;;;21.17;16.43;;;9.00;99.90;;;;;;6212710;23;20393;-75
2024/03/02 09:37:07;;;;;;;20.63;16.23;;;9.10;99.90;;;;;;6214156;23;19996;-75
2024/03/02 09:39:33;;;;;;;20.73;15.53;;;9.30;99.90;;;;;;6213034;23;20020;-75
2024/03/02 09:41:59;;;;;;;19.90;15.30;;;9.40;99.90;;;;;;6212589;23;20023;-75
2024/03/02 09:44:25;;;;;;;27.60;18.37;;;9.60;99.90;;;;;;6213886;23;20332;-75
2024/03/02 09:46:51;;;;;;;19.70;16.30;;;9.70;99.90;;;;;;6213808;23;20363;-74
2024/03/02 09:49:17;;;;;;;17.93;14.67;;;9.70;99.90;;;;;;6212887;23;20016;-75
2024/03/02 09:51:48;;;;;;;17.17;13.63;;;9.80;99.90;;;;;;6212998;23;20075;-70
2024/03/02 09:54:15;;;;;;;17.83;14.50;;;10.00;99.90;;;;;;6213521;23;20000;-75
2024/03/02 09:56:41;;;;;;;17.37;13.93;;;10.10;99.90;;;;;;6213239;23;20035;-75
2024/03/02 09:59:06;;;;;;;18.00;13.60;;;10.20;99.90;;;;;;6213034;23;20173;-73
2024/03/02 10:01:32;;;;;;;19.63;14.10;;;10.40;99.90;;;;;;6215017;23;20008;-77
2024/03/02 10:04:02;;;;;;;19.53;13.13;;;10.60;99.90;;;;;;6213188;23;20319;-76
2024/03/02 10:06:28;;;;;;;16.70;13.77;;;10.50;99.90;;;;;;6206246;23;20083;-76
2024/03/02 10:08:55;;;;;;;17.27;13.43;;;10.50;99.90;;;;;;6214048;23;20028;-77
2024/03/02 10:11:28;;;;;;;19.50;13.50;;;10.60;99.90;;;;;;6212569;23;20423;-77
2024/03/02 10:14:08;;;;;;;17.03;13.10;;;10.60;99.90;;;;;;6212631;23;20000;-77
2024/03/02 10:16:38;;;;;;;18.10;13.93;;;10.50;99.90;;;;;;6210945;23;20068;-77
2024/03/02 10:19:20;;;;;;;19.60;14.63;;;10.50;99.90;;;;;;6214527;23;20004;-77
2024/03/02 10:21:53;;;;;;;17.33;13.33;;;10.50;99.90;;;;;;6214654;23;20135;-78
2024/03/02 10:24:23;;;;;;;20.60;14.20;;;10.50;99.90;;;;;;6215815;23;20012;-78
2024/03/02 10:26:49;;;;;;;17.83;12.23;;;10.60;99.90;;;;;;6214916;23;20423;-83
2024/03/02 10:29:15;;;;;;;19.83;12.87;;;10.50;99.90;;;;;;6218527;23;20004;-78
2024/03/02 10:31:42;;;;;;;17.27;11.77;;;10.60;99.90;;;;;;6214499;23;20019;-76
2024/03/02 10:34:08;;;;;;;16.23;11.10;;;10.80;99.90;;;;;;6212899;23;20435;-75
2024/03/02 10:36:37;;;;;;;16.42;12.05;;;11.00;99.90;;;;;;6213296;23;20008;-77
2024/03/02 10:39:07;;;;;;;15.90;11.70;;;11.20;99.90;;;;;;6187602;23;20135;-77
2024/03/02 10:41:37;;;;;;;20.70;13.55;;;11.40;99.90;;;;;;6213377;23;20023;-77
2024/03/02 10:44:07;;;;;;;15.20;11.02;;;11.60;99.90;;;;;;6214845;23;20004;-72
2024/03/02 10:46:35;;;;;;;15.18;11.35;;;11.60;99.90;;;;;;6213631;23;20007;-83
2024/03/02 10:49:03;;;;;;;16.77;12.85;;;11.50;99.90;;;;;;6213229;23;20436;-78
2024/03/02 10:51:31;;;;;;;17.35;11.55;;;11.50;99.90;;;;;;6212998;23;19997;-75
2024/03/02 10:54:01;;;;;;;17.80;12.23;;;11.70;99.90;;;;;;6213456;23;19997;-78
2024/03/02 10:56:36;;;;;;;15.65;11.70;;;11.70;99.90;;;;;;6213353;23;20019;-78
2024/03/02 10:59:16;;;;;;;15.73;11.00;;;11.70;99.90;;;;;;6213821;23;20039;-78
2024/03/02 11:01:43;;;;;;;14.50;10.73;;;11.80;99.90;;;;;;6215259;23;20064;-78
2024/03/02 11:04:11;;;;;;;16.40;10.40;;;11.80;99.90;;;;;;6215200;23;20001;-78
2024/03/02 11:06:39;;;;;;;14.73;10.40;;;12.10;99.90;;;;;;6216876;23;20448;-77
2024/03/02 11:09:10;;;;;;;14.82;10.90;;;12.30;99.90;;;;;;6215516;23;20012;-77
2024/03/02 11:11:39;;;;;;;13.02;9.00;;;12.40;99.90;;;;;;6215560;23;20064;-77
2024/03/02 11:14:08;;;;;;;10.40;8.18;;;12.50;99.90;;;;;;6212813;23;20590;-77
2024/03/02 11:16:39;;;;;;;12.70;8.47;;;12.70;99.90;;;;;;6213449;23;20012;-77
2024/03/02 11:19:13;;;;;;;12.80;8.70;;;12.80;99.90;;;;;;6214137;23;20012;-77
2024/03/02 11:21:40;;;;;;;;;;;12.90;99.90;;;;;;6213551;23;20453;-77
2024/03/02 11:24:21;;;;;;;;;;;12.90;99.90;;;;;;6213883;23;20108;-74
2024/03/02 11:26:46;;;;;;;;;;;12.80;99.90;;;;;;6212755;23;20048;-75
2024/03/02 11:29:34;;;;;;;;;;;12.70;99.90;;;;;;6213395;23;20028;-74
2024/03/02 11:32:00;;;;;;;11.70;7.80;;;12.60;99.90;;;;;;6213000;23;20067;-69
2024/03/02 11:34:33;;;;;;;;;;;12.70;99.90;;;;;;6211292;23;20020;-70
2024/03/02 11:36:59;;;;;;;;;;;12.90;99.90;;;;;;6212065;23;20012;-70
2024/03/02 11:39:25;;;;;;;;;;;13.00;99.90;;;;;;6212529;23;20067;-70
2024/03/02 11:41:51;;;;;;;;;;;13.00;99.90;;;;;;6212410;23;20016;-71
2024/03/02 11:44:16;;;;;;;;;;;13.10;99.90;;;;;;6212502;23;20387;-70
2024/03/02 11:46:44;;;;;;;13.40;8.80;;;13.20;99.90;;;;;;6213723;23;20022;-70
2024/03/02 11:49:13;;;;;;;;;;;13.30;99.90;;;;;;6213596;23;20037;-70
2024/03/02 11:51:50;;;;;;;;;;;13.30;99.90;;;;;;6214100;23;20074;-69
2024/03/02 11:54:15;;;;;;;;;;;13.30;99.90;;;;;;6213308;23;20044;-69
2024/03/02 11:56:41;;;;;;;;;;;13.30;99.90;;;;;;6213442;23;20447;-71
2024/03/02 11:59:06;;;;;;;;;;;13.40;99.90;;;;;;6213884;23;20024;-70
2024/03/02 12:01:34;;;;;;;;;;;13.50;99.90;;;;;;6213533;23;20028;-69
2024/03/02 12:03:59;;;;;;;21.80;13.20;;;13.50;99.90;;;;;;6213143;23;20087;-70
2024/03/02 12:06:25;;;;;;;16.87;11.30;;;13.70;99.90;;;;;;6213133;23;20032;-70
2024/03/02 12:08:52;;;;;;;;;;;13.80;99.90;;;;;;6213199;23;20015;-70
2024/03/02 12:11:17;;;;;;;;;;;14.00;99.90;;;;;;6212511;23;20016;-69
2024/03/02 12:13:51;;;;;;;;;;;14.20;99.90;;;;;;6213260;23;20094;-70
2024/03/02 12:16:22;;;;;;;;;;;14.50;99.90;;;;;;6212479;23;20073;-70
2024/03/02 12:18:48;;;;;;;;;;;14.40;99.90;;;;;;6213097;23;20015;-69
2024/03/02 12:21:13;;;;;;;;;;;14.40;99.90;;;;;;6213125;23;20106;-70
2024/03/02 12:23:39;;;;;;;;;;;14.30;99.90;;;;;;6212117;23;20021;-70
2024/03/02 12:26:04;;;;;;;;;;;14.30;99.90;;;;;;6212262;23;20011;-69
2024/03/02 12:28:30;;;;;;;;;;;14.20;99.90;;;;;;6212142;23;20023;-70
2024/03/02 12:30:56;;;;;;;;;;;14.20;99.90;;;;;;6212250;23;20016;-70
2024/03/02 12:33:21;;;;;;;;;;;14.10;99.90;;;;;;6212283;23;20018;-70
2024/03/02 12:35:48;;;;;;;;;;;14.10;99.90;;;;;;6211872;23;20386;-70
2024/03/02 12:38:14;;;;;;;;;;;14.00;99.90;;;;;;6213107;23;20007;-69
2024/03/02 12:40:39;;;;;;;;;;;14.00;99.90;;;;;;6212287;23;20004;-69
2024/03/02 12:43:05;;;;;;;;;;;13.90;99.90;;;;;;6212612;23;20072;-70
2024/03/02 12:45:31;;;;;;;;;;;13.90;99.90;;;;;;6210950;23;19900;-70
2024/03/02 12:47:56;;;;;;;;;;;14.00;99.90;;;;;;6212350;23;20109;-69